createdAt,value
2022-11-05T00:00:37.257Z,101213.13
2022-11-05T00:03:23.115Z,101213.38
2022-11-05T00:06:10.161Z,101205.91
2022-11-05T00:08:55.453Z,101207.75
2022-11-05T00:11:45.117Z,101212.41
2022-11-05T00:14:30.561Z,101215.06
2022-11-05T00:16:57.802Z,101220.13
2022-11-05T00:19:25.213Z,101220.72
2022-11-05T00:22:10.685Z,101223.91
2022-11-05T00:24:56.273Z,101224.44
2022-11-05T00:27:23.210Z,101228.22
2022-11-05T00:29:50.260Z,101225.31
2022-11-05T00:32:17.307Z,101230.94
2022-11-05T00:34:44.152Z,101236.97
2022-11-05T00:37:10.893Z,101246.56
2022-11-05T00:39:37.735Z,101243.59
2022-11-05T00:42:23.169Z,101249.38
2022-11-05T00:45:02.285Z,101249.47
2022-11-05T00:47:48.659Z,101247.09
2022-11-05T00:50:15.648Z,101262.84
2022-11-05T00:52:57.901Z,101264.81
2022-11-05T00:55:38.613Z,101274.94
2022-11-05T00:58:18.366Z,101275.00
2022-11-05T01:00:52.080Z,101271.56
2022-11-05T01:03:20.909Z,101280.47
2022-11-05T01:05:52.386Z,101275.56
2022-11-05T01:08:20.601Z,101284.69
2022-11-05T01:10:49.614Z,101278.19
2022-11-05T01:13:19.533Z,101281.19
2022-11-05T01:15:48.356Z,101283.50
2022-11-05T01:18:15.133Z,101281.00
2022-11-05T01:20:41.940Z,101282.44
2022-11-05T01:23:13.311Z,101292.72
2022-11-05T01:25:44.427Z,101293.75
2022-11-05T01:28:11.258Z,101297.31
2022-11-05T01:30:38.414Z,101300.03
2022-11-05T01:33:05.373Z,101305.69
2022-11-05T01:35:32.332Z,101311.38
2022-11-05T01:37:59.359Z,101302.75
2022-11-05T01:40:26.395Z,101302.25
2022-11-05T01:42:53.238Z,101305.59
2022-11-05T01:45:26.164Z,101297.81
2022-11-05T01:48:09.241Z,101297.44
2022-11-05T01:50:39.585Z,101292.59
2022-11-05T01:53:20.664Z,101307.13
2022-11-05T01:56:26.041Z,101300.56
2022-11-05T01:59:12.150Z,101306.16
2022-11-05T02:01:39.286Z,101301.72
2022-11-05T02:04:10.206Z,101302.31
2022-11-05T02:06:46.225Z,101294.97
2022-11-05T02:09:21.067Z,101306.78
2022-11-05T02:11:48.739Z,101308.81
2022-11-05T02:14:15.571Z,101302.00
2022-11-05T02:16:50.264Z,101313.78
2022-11-05T02:19:51.031Z,101302.78
2022-11-05T02:22:53.107Z,101311.81
2022-11-05T02:25:29.177Z,101309.72
2022-11-05T02:28:14.783Z,101312.44
2022-11-05T02:31:20.013Z,101313.34
2022-11-05T02:34:12.157Z,101308.56
2022-11-05T02:36:50.227Z,101309.72
2022-11-05T02:39:54.422Z,101314.84
2022-11-05T02:42:59.820Z,101308.03
2022-11-05T02:45:41.731Z,101307.75
2022-11-05T02:48:23.538Z,101305.50
2022-11-05T02:51:04.287Z,101304.44
2022-11-05T02:53:41.449Z,101301.03
2022-11-05T02:56:21.504Z,101304.59
2022-11-05T02:58:48.333Z,101303.22
2022-11-05T03:01:16.130Z,101299.72
2022-11-05T03:03:48.928Z,101297.59
2022-11-05T03:06:34.496Z,101295.88
2022-11-05T03:09:14.834Z,101306.50
2022-11-05T03:12:09.658Z,101301.03
2022-11-05T03:14:51.443Z,101299.84
2022-11-05T03:17:30.252Z,101290.13
2022-11-05T03:20:29.675Z,101284.53
2022-11-05T03:23:00.870Z,101288.25
2022-11-05T03:25:30.292Z,101287.50
2022-11-05T03:28:00.446Z,101297.28
2022-11-05T03:30:27.292Z,101298.75
2022-11-05T03:33:07.656Z,101294.38
2022-11-05T03:35:37.442Z,101293.41
2022-11-05T03:38:10.561Z,101304.81
2022-11-05T03:40:37.617Z,101296.56
2022-11-05T03:43:09.743Z,101313.88
2022-11-05T03:46:04.948Z,101311.84
2022-11-05T03:48:33.802Z,101308.38
2022-11-05T03:51:08.598Z,101303.00
2022-11-05T03:53:44.226Z,101313.41
2022-11-05T03:56:18.561Z,101311.25
2022-11-05T03:58:46.223Z,101312.88
2022-11-05T04:01:13.031Z,101316.16
2022-11-05T04:03:40.609Z,101313.13
2022-11-05T04:06:27.036Z,101313.31
2022-11-05T04:09:13.209Z,101308.50
2022-11-05T04:11:58.463Z,101316.09
2022-11-05T04:14:26.360Z,101323.22
2022-11-05T04:17:11.608Z,101313.50
2022-11-05T04:19:59.195Z,101326.97
2022-11-05T04:22:45.775Z,101322.78
2022-11-05T04:25:13.595Z,101319.06
2022-11-05T04:27:40.649Z,101319.28
2022-11-05T04:30:25.001Z,101317.19
2022-11-05T04:33:11.134Z,101308.13
2022-11-05T04:35:43.417Z,101319.94
2022-11-05T04:38:12.684Z,101319.53
2022-11-05T04:40:39.508Z,101320.47
2022-11-05T04:43:10.631Z,101325.19
2022-11-05T04:45:42.329Z,101336.00
2022-11-05T04:48:09.212Z,101330.25
2022-11-05T04:50:36.058Z,101331.91
2022-11-05T04:53:03.051Z,101332.44
2022-11-05T04:55:29.811Z,101338.09
2022-11-05T04:57:56.591Z,101344.50
2022-11-05T05:00:23.982Z,101345.94
2022-11-05T05:02:51.051Z,101344.00
2022-11-05T05:05:17.814Z,101348.19
2022-11-05T05:07:44.526Z,101358.59
2022-11-05T05:10:11.730Z,101353.78
2022-11-05T05:12:38.463Z,101364.31
2022-11-05T05:15:05.947Z,101353.50
2022-11-05T05:17:32.917Z,101352.72
2022-11-05T05:20:18.062Z,101354.28
2022-11-05T05:22:51.577Z,101361.22
2022-11-05T05:25:18.907Z,101368.19
2022-11-05T05:27:45.604Z,101356.22
2022-11-05T05:30:12.639Z,101365.06
2022-11-05T05:32:39.390Z,101363.34
2022-11-05T05:35:06.407Z,101370.06
2022-11-05T05:37:33.246Z,101359.06
2022-11-05T05:39:59.955Z,101369.25
2022-11-05T05:42:27.431Z,101366.59
2022-11-05T05:44:54.353Z,101362.16
2022-11-05T05:47:23.840Z,101369.16
2022-11-05T05:49:50.654Z,101379.59
2022-11-05T05:52:17.598Z,101382.53
2022-11-05T05:54:45.131Z,101376.59
2022-11-05T05:57:11.788Z,101377.25
2022-11-05T05:59:38.504Z,101373.00
2022-11-05T06:02:05.311Z,101370.63
2022-11-05T06:04:32.851Z,101371.00
2022-11-05T06:06:59.766Z,101365.88
2022-11-05T06:09:26.574Z,101377.91
2022-11-05T06:11:53.246Z,101380.06
2022-11-05T06:14:19.934Z,101385.91
2022-11-05T06:16:46.699Z,101388.91
2022-11-05T06:19:13.352Z,101388.19
2022-11-05T06:21:40.040Z,101382.88
2022-11-05T06:24:07.562Z,101382.56
2022-11-05T06:26:34.356Z,101384.75
2022-11-05T06:29:01.150Z,101381.97
2022-11-05T06:31:28.916Z,101392.19
2022-11-05T06:33:55.647Z,101389.03
2022-11-05T06:36:22.480Z,101394.38
2022-11-05T06:38:49.462Z,101390.09
2022-11-05T06:41:16.195Z,101388.81
2022-11-05T06:43:43.588Z,101395.47
2022-11-05T06:46:11.247Z,101387.06
2022-11-05T06:48:38.850Z,101392.31
2022-11-05T06:51:06.585Z,101394.00
2022-11-05T06:53:33.447Z,101389.09
2022-11-05T06:56:07.472Z,101394.84
2022-11-05T06:58:34.573Z,101402.63
2022-11-05T07:01:09.381Z,101397.97
2022-11-05T07:03:38.343Z,101406.75
2022-11-05T07:06:06.743Z,101407.75
2022-11-05T07:08:34.597Z,101410.78
2022-11-05T07:11:03.515Z,101419.63
2022-11-05T07:13:30.309Z,101415.09
2022-11-05T07:15:57.467Z,101419.63
2022-11-05T07:18:24.745Z,101423.94
2022-11-05T07:20:51.519Z,101422.31
2022-11-05T07:23:18.256Z,101425.69
2022-11-05T07:25:45.919Z,101431.91
2022-11-05T07:28:24.778Z,101438.16
2022-11-05T07:30:59.412Z,101434.69
2022-11-05T07:33:26.257Z,101448.72
2022-11-05T07:35:55.565Z,101440.22
2022-11-05T07:38:31.518Z,101435.22
2022-11-05T07:41:01.529Z,101446.22
2022-11-05T07:43:28.238Z,101447.03
2022-11-05T07:45:58.005Z,101442.28
2022-11-05T07:48:24.778Z,101445.09
2022-11-05T07:50:52.908Z,101447.88
2022-11-05T07:53:20.772Z,101448.06
2022-11-05T07:55:47.588Z,101445.22
2022-11-05T07:58:15.079Z,101452.59
2022-11-05T08:00:41.991Z,101447.91
2022-11-05T08:03:14.066Z,101443.69
2022-11-05T08:05:46.211Z,101443.44
2022-11-05T08:08:15.238Z,101443.19
2022-11-05T08:10:42.234Z,101448.91
2022-11-05T08:13:09.892Z,101453.94
2022-11-05T08:15:37.557Z,101451.09
2022-11-05T08:18:09.054Z,101441.84
2022-11-05T08:20:38.237Z,101446.47
2022-11-05T08:23:06.424Z,101426.28
2022-11-05T08:25:34.197Z,101434.31
2022-11-05T08:28:10.620Z,101430.13
2022-11-05T08:30:37.923Z,101433.47
2022-11-05T08:33:07.706Z,101440.06
2022-11-05T08:35:55.837Z,101430.66
2022-11-05T08:38:31.577Z,101439.53
2022-11-05T08:40:58.767Z,101433.94
2022-11-05T08:43:26.288Z,101438.03
2022-11-05T08:45:54.373Z,101441.75
2022-11-05T08:48:21.347Z,101440.41
2022-11-05T08:50:49.176Z,101445.59
2022-11-05T08:53:16.416Z,101437.47
2022-11-05T08:55:44.237Z,101431.06
2022-11-05T08:58:17.903Z,101437.28
2022-11-05T09:00:47.454Z,101450.94
2022-11-05T09:03:18.147Z,101433.59
2022-11-05T09:05:45.318Z,101442.94
2022-11-05T09:08:15.905Z,101453.84
2022-11-05T09:10:44.869Z,101443.69
2022-11-05T09:13:18.280Z,101451.06
2022-11-05T09:15:47.652Z,101451.63
2022-11-05T09:18:14.848Z,101447.97
2022-11-05T09:20:42.779Z,101442.59
2022-11-05T09:23:11.182Z,101453.22
2022-11-05T09:25:38.858Z,101449.44
2022-11-05T09:28:16.203Z,101451.63
2022-11-05T09:30:48.192Z,101457.97
2022-11-05T09:33:16.409Z,101449.59
2022-11-05T09:35:43.289Z,101454.56
2022-11-05T09:38:12.170Z,101460.06
2022-11-05T09:40:51.248Z,101457.19
2022-11-05T09:43:20.953Z,101453.47
2022-11-05T09:45:53.362Z,101444.31
2022-11-05T09:48:23.804Z,101435.59
2022-11-05T09:50:51.242Z,101444.34
2022-11-05T09:53:20.056Z,101452.09
2022-11-05T09:56:06.675Z,101456.31
2022-11-05T09:58:44.284Z,101464.94
2022-11-05T10:01:22.048Z,101458.00
2022-11-05T10:03:52.064Z,101457.72
2022-11-05T10:06:25.021Z,101473.28
2022-11-05T10:09:08.349Z,101467.44
2022-11-05T10:11:41.994Z,101463.44
2022-11-05T10:14:44.953Z,101473.88
2022-11-05T10:17:24.689Z,101469.53
2022-11-05T10:20:00.098Z,101471.59
2022-11-05T10:22:26.954Z,101483.50
2022-11-05T10:24:55.390Z,101477.59
2022-11-05T10:27:29.903Z,101474.13
2022-11-05T10:29:57.623Z,101482.06
2022-11-05T10:32:35.153Z,101476.97
2022-11-05T10:35:04.787Z,101473.00
2022-11-05T10:37:40.525Z,101467.00
2022-11-05T10:40:32.314Z,101478.94
2022-11-05T10:43:44.389Z,101477.66
2022-11-05T10:46:35.887Z,101464.19
2022-11-05T10:49:40.809Z,101463.56
2022-11-05T10:52:26.152Z,101465.81
2022-11-05T10:54:56.233Z,101457.91
2022-11-05T10:57:35.065Z,101452.16
2022-11-05T11:00:14.988Z,101465.34
2022-11-05T11:02:48.092Z,101466.91
2022-11-05T11:05:32.744Z,101465.69
2022-11-05T11:08:11.739Z,101461.72
2022-11-05T11:10:56.113Z,101449.19
2022-11-05T11:13:27.386Z,101460.19
2022-11-05T11:15:56.814Z,101449.69
2022-11-05T11:18:40.097Z,101447.59
2022-11-05T11:21:17.866Z,101439.63
2022-11-05T11:23:59.559Z,101448.66
2022-11-05T11:26:32.799Z,101441.63
2022-11-05T11:29:01.984Z,101438.03
2022-11-05T11:31:31.181Z,101434.19
2022-11-05T11:34:10.360Z,101432.31
2022-11-05T11:36:49.275Z,101436.19
2022-11-05T11:39:21.092Z,101437.19
2022-11-05T11:42:09.977Z,101437.63
2022-11-05T11:44:48.599Z,101435.16
2022-11-05T11:47:19.424Z,101441.13
2022-11-05T11:49:57.150Z,101436.69
2022-11-05T11:52:35.068Z,101426.34
2022-11-05T11:55:16.495Z,101424.66
2022-11-05T11:57:49.397Z,101409.91
2022-11-05T12:00:17.710Z,101427.50
2022-11-05T12:03:20.035Z,101418.44
2022-11-05T12:06:24.793Z,101419.63
2022-11-05T12:09:06.437Z,101417.22
2022-11-05T12:11:59.570Z,101408.09
2022-11-05T12:15:00.970Z,101404.56
2022-11-05T12:17:49.635Z,101411.91
2022-11-05T12:20:26.714Z,101401.84
2022-11-05T12:22:59.620Z,101409.41
2022-11-05T12:25:45.328Z,101397.50
2022-11-05T12:28:30.778Z,101397.69
2022-11-05T12:31:19.653Z,101397.03
2022-11-05T12:33:59.745Z,101392.84
2022-11-05T12:36:43.054Z,101379.97
2022-11-05T12:39:40.562Z,101386.63
2022-11-05T12:42:31.889Z,101379.44
2022-11-05T12:45:02.382Z,101380.97
2022-11-05T12:47:46.986Z,101385.97
2022-11-05T12:50:23.647Z,101376.53
2022-11-05T12:53:31.989Z,101379.06
2022-11-05T12:56:01.116Z,101370.38
2022-11-05T12:58:37.571Z,101376.84
2022-11-05T13:01:13.168Z,101374.25
2022-11-05T13:04:00.159Z,101371.88
2022-11-05T13:06:42.121Z,101374.78
2022-11-05T13:09:23.505Z,101380.72
2022-11-05T13:12:21.861Z,101370.84
2022-11-05T13:15:01.378Z,101369.41
2022-11-05T13:17:37.042Z,101376.97
2022-11-05T13:20:20.845Z,101382.91
2022-11-05T13:23:13.583Z,101379.06
2022-11-05T13:25:48.134Z,101377.59
2022-11-05T13:28:28.493Z,101368.50
2022-11-05T13:30:58.751Z,101363.56
2022-11-05T13:33:42.445Z,101354.41
2022-11-05T13:36:41.765Z,101343.00
2022-11-05T13:39:30.088Z,101352.50
2022-11-05T13:42:22.206Z,101353.00
2022-11-05T13:45:11.319Z,101350.13
2022-11-05T13:48:03.028Z,101342.59
2022-11-05T13:51:00.896Z,101354.31
2022-11-05T13:53:58.681Z,101352.22
2022-11-05T13:57:06.815Z,101348.84
2022-11-05T13:59:45.921Z,101341.16
2022-11-05T14:02:38.927Z,101343.06
2022-11-05T14:05:08.560Z,101334.59
2022-11-05T14:07:44.961Z,101342.13
2022-11-05T14:10:39.227Z,101343.69
2022-11-05T14:13:35.210Z,101340.19
2022-11-05T14:16:27.843Z,101342.13
2022-11-05T14:19:22.823Z,101333.63
2022-11-05T14:21:58.128Z,101330.78
2022-11-05T14:24:30.947Z,101338.28
2022-11-05T14:27:00.999Z,101337.47
2022-11-05T14:29:44.985Z,101340.50
2022-11-05T14:32:28.874Z,101337.16
2022-11-05T14:35:05.172Z,101332.16
2022-11-05T14:37:56.254Z,101337.25
2022-11-05T14:40:40.417Z,101340.03
2022-11-05T14:43:28.145Z,101335.06
2022-11-05T14:46:08.942Z,101330.91
2022-11-05T14:48:43.469Z,101336.34
2022-11-05T14:51:29.448Z,101340.00
2022-11-05T14:54:12.345Z,101338.41
2022-11-05T14:56:57.304Z,101345.81
2022-11-05T14:59:24.504Z,101339.69
2022-11-05T15:02:03.883Z,101342.03
2022-11-05T15:04:32.154Z,101344.50
2022-11-05T15:07:13.173Z,101339.31
2022-11-05T15:09:54.427Z,101332.94
2022-11-05T15:12:59.129Z,101341.00
2022-11-05T15:15:28.793Z,101340.34
2022-11-05T15:18:03.886Z,101345.63
2022-11-05T15:20:46.806Z,101351.97
2022-11-05T15:23:19.726Z,101345.81
2022-11-05T15:26:11.935Z,101351.81
2022-11-05T15:28:46.555Z,101354.38
2022-11-05T15:31:15.650Z,101354.06
2022-11-05T15:33:45.680Z,101354.91
2022-11-05T15:36:30.776Z,101345.72
2022-11-05T15:41:47.018Z,101347.00
2022-11-05T15:44:27.665Z,101346.84
2022-11-05T15:47:09.123Z,101343.00
2022-11-05T15:49:39.749Z,101345.94
2022-11-05T15:52:15.284Z,101350.56
2022-11-05T15:54:43.288Z,101344.41
2022-11-05T15:57:26.161Z,101350.34
2022-11-05T15:59:53.548Z,101341.69
2022-11-05T16:02:36.649Z,101345.75
2022-11-05T16:05:13.237Z,101345.50
2022-11-05T16:07:45.221Z,101343.50
2022-11-05T16:10:21.763Z,101346.09
2022-11-05T16:12:48.588Z,101340.88
2022-11-05T16:15:15.177Z,101345.53
2022-11-05T16:17:46.998Z,101340.38
2022-11-05T16:20:34.784Z,101341.63
2022-11-05T16:23:02.744Z,101347.22
2022-11-05T16:25:43.268Z,101324.56
2022-11-05T16:28:39.030Z,101330.59
2022-11-05T16:31:06.228Z,101322.34
2022-11-05T16:33:45.976Z,101306.25
2022-11-05T16:36:15.453Z,101300.91
2022-11-05T16:38:45.485Z,101302.97
2022-11-05T16:41:19.745Z,101302.63
2022-11-05T16:43:56.730Z,101315.69
2022-11-05T16:46:25.675Z,101317.38
2022-11-05T16:48:52.438Z,101313.06
2022-11-05T16:51:27.427Z,101320.09
2022-11-05T16:54:09.912Z,101318.31
2022-11-05T16:56:40.326Z,101323.66
2022-11-05T16:59:09.921Z,101312.31
2022-11-05T17:01:37.485Z,101317.94
2022-11-05T17:04:10.403Z,101320.84
2022-11-05T17:06:37.768Z,101310.78
2022-11-05T17:09:04.585Z,101318.47
2022-11-05T17:11:31.676Z,101322.44
2022-11-05T17:13:58.664Z,101323.69
2022-11-05T17:16:26.995Z,101328.28
2022-11-05T17:18:53.802Z,101335.88
2022-11-05T17:21:20.673Z,101317.44
2022-11-05T17:23:47.595Z,101313.56
2022-11-05T17:26:14.457Z,101322.94
2022-11-05T17:28:44.057Z,101323.44
2022-11-05T17:31:13.275Z,101321.44
2022-11-05T17:33:40.391Z,101320.56
2022-11-05T17:36:09.566Z,101321.72
2022-11-05T17:38:36.357Z,101327.88
2022-11-05T17:41:15.052Z,101321.97
2022-11-05T17:43:45.890Z,101327.38
2022-11-05T17:46:26.520Z,101309.44
2022-11-05T17:48:53.367Z,101308.38
2022-11-05T17:51:30.489Z,101301.13
2022-11-05T17:54:01.099Z,101307.72
2022-11-05T17:56:35.086Z,101298.91
2022-11-05T17:59:09.277Z,101298.72
2022-11-05T18:01:54.484Z,101297.66
2022-11-05T18:04:31.068Z,101292.78
2022-11-05T18:06:58.213Z,101300.63
2022-11-05T18:09:28.301Z,101297.03
2022-11-05T18:11:56.830Z,101304.25
2022-11-05T18:14:25.210Z,101315.03
2022-11-05T18:19:46.094Z,101295.03
2022-11-05T18:22:18.541Z,101318.72
2022-11-05T18:28:05.720Z,101327.03
2022-11-05T18:30:38.690Z,101310.94
2022-11-05T18:33:06.065Z,101330.56
2022-11-05T18:35:33.825Z,101320.47
2022-11-05T18:38:01.094Z,101325.72
2022-11-05T18:40:28.750Z,101342.72
2022-11-05T18:42:56.143Z,101344.09
2022-11-05T18:45:38.724Z,101336.53
2022-11-05T18:48:06.033Z,101318.81
2022-11-05T18:53:17.065Z,101317.06
2022-11-05T18:55:44.680Z,101342.91
2022-11-05T18:58:12.094Z,101339.97
2022-11-05T19:03:20.767Z,101343.31
2022-11-05T19:05:47.600Z,101336.78
2022-11-05T19:08:15.003Z,101344.19
2022-11-05T19:10:42.157Z,101340.84
2022-11-05T19:13:09.006Z,101332.28
2022-11-05T19:15:35.729Z,101344.34
2022-11-05T19:18:03.097Z,101351.72
2022-11-05T19:20:35.085Z,101347.94
2022-11-05T19:23:05.454Z,101341.09
2022-11-05T19:25:32.378Z,101342.69
2022-11-05T19:27:59.199Z,101349.47
2022-11-05T19:30:26.114Z,101350.25
2022-11-05T19:32:52.949Z,101350.59
2022-11-05T19:35:20.035Z,101340.03
2022-11-05T19:37:47.031Z,101340.19
2022-11-05T19:40:13.845Z,101337.72
2022-11-05T19:42:40.640Z,101329.69
2022-11-05T19:45:30.336Z,101333.56
2022-11-05T19:47:54.964Z,101323.22
2022-11-05T19:50:21.830Z,101316.44
2022-11-05T19:52:48.763Z,101299.59
2022-11-05T19:55:15.551Z,101309.81
2022-11-05T19:57:42.303Z,101294.19
2022-11-05T20:00:09.558Z,101294.16
2022-11-05T20:02:38.179Z,101279.00
2022-11-05T20:05:05.725Z,101276.53
2022-11-05T20:07:33.527Z,101275.19
2022-11-05T20:10:00.238Z,101263.78
2022-11-05T20:12:26.968Z,101258.00
2022-11-05T20:14:53.746Z,101260.38
2022-11-05T20:17:20.612Z,101251.91
2022-11-05T20:19:47.455Z,101252.72
2022-11-05T20:22:14.293Z,101250.00
2022-11-05T20:24:41.028Z,101248.97
2022-11-05T20:27:08.115Z,101252.84
2022-11-05T20:29:35.917Z,101245.00
2022-11-05T20:32:04.032Z,101228.88
2022-11-05T20:34:31.777Z,101240.09
2022-11-05T20:36:58.627Z,101240.97
2022-11-05T20:39:25.487Z,101245.19
2022-11-05T20:41:53.075Z,101252.78
2022-11-05T20:44:19.978Z,101260.41
2022-11-05T20:46:46.892Z,101260.78
2022-11-05T20:49:13.710Z,101249.66
2022-11-05T20:51:41.541Z,101253.69
2022-11-05T20:54:09.721Z,101259.53
2022-11-05T20:56:36.526Z,101257.22
2022-11-05T20:59:05.450Z,101253.72
2022-11-05T21:01:33.497Z,101261.66
2022-11-05T21:04:00.534Z,101258.00
2022-11-05T21:06:27.483Z,101271.00
2022-11-05T21:08:54.626Z,101273.41
2022-11-05T21:11:21.708Z,101277.63
2022-11-05T21:13:48.924Z,101286.41
2022-11-05T21:16:18.696Z,101273.25
2022-11-05T21:18:46.422Z,101277.06
2022-11-05T21:21:20.395Z,101271.75
2022-11-05T21:23:48.637Z,101278.03
2022-11-05T21:26:17.039Z,101272.84
2022-11-05T21:28:46.763Z,101272.34
2022-11-05T21:31:15.140Z,101274.28
2022-11-05T21:33:42.394Z,101269.53
2022-11-05T21:36:13.168Z,101261.97
2022-11-05T21:38:41.814Z,101266.72
2022-11-05T21:41:09.970Z,101269.53
2022-11-05T21:43:38.661Z,101264.00
2022-11-05T21:46:09.843Z,101264.00
2022-11-05T21:48:38.286Z,101260.88
2022-11-05T21:51:24.021Z,101258.78
2022-11-05T21:54:09.380Z,101244.22
2022-11-05T21:56:54.959Z,101253.06
2022-11-05T21:59:42.297Z,101253.50
2022-11-05T22:02:11.369Z,101251.09
2022-11-05T22:04:41.624Z,101255.59
2022-11-05T22:07:10.326Z,101253.59
2022-11-05T22:09:37.551Z,101253.94
2022-11-05T22:12:05.117Z,101245.16
2022-11-05T22:14:32.501Z,101246.53
2022-11-05T22:16:59.900Z,101245.94
2022-11-05T22:19:26.744Z,101242.63
2022-11-05T22:21:54.566Z,101240.88
2022-11-05T23:36:45.477Z,101165.22
2022-11-05T23:51:24.938Z,101159.91
